Omaha, Nebraska
Current Conditions -  °F | °C
As of 2:52 PM on Saturday 22 Nov 2014 (Local Time) from KOMA Reporting Station
Scattered Clouds Scattered Clouds  
Wind Chill: 56°   Ceiling: Unl
Heat Index: 56°   Visibility: 10mi
Dew Point: 43°   Wind: 12mph
Humidity: 62%   Direction: 170°S
Pressure: 29.68"   Gusts: NA
Location:  41.26°N, 95.94°W
Report Text: KOMA 222052Z 17010KT 10SM SCT180 13/06 A2968 RMK AO2 SLP052 T01330061 58029
Loading
Personal Weather Stations






























Interactive Weather Map New forecast layout! Learn more

10-Day Weather Forecast

Advertisements
Track Severe Weather on mobile